createdAt,value
2019-04-16T00:01:14.996Z,99.90
2019-04-16T00:03:54.038Z,99.90
2019-04-16T00:06:36.401Z,99.90
2019-04-16T00:09:15.819Z,99.90
2019-04-16T00:11:55.229Z,99.90
2019-04-16T00:14:31.428Z,99.90
2019-04-16T00:17:04.745Z,99.90
2019-04-16T00:19:37.819Z,99.90
2019-04-16T00:22:35.072Z,99.90
2019-04-16T00:25:08.280Z,99.90
2019-04-16T00:27:41.103Z,99.90
2019-04-16T00:30:16.523Z,99.90
2019-04-16T00:32:49.302Z,99.90
2019-04-16T00:35:21.807Z,99.90
2019-04-16T00:37:54.599Z,99.90
2019-04-16T00:40:27.644Z,99.90
2019-04-16T00:43:00.738Z,99.90
2019-04-16T00:45:33.457Z,99.90
2019-04-16T00:48:06.363Z,99.90
2019-04-16T00:50:39.157Z,99.90
2019-04-16T00:53:11.852Z,99.90
2019-04-16T00:55:45.177Z,99.90
2019-04-16T00:58:19.691Z,99.90
2019-04-16T01:00:53.443Z,99.90
2019-04-16T01:03:26.178Z,99.90
2019-04-16T01:05:59.009Z,99.90
2019-04-16T01:08:32.020Z,99.90
2019-04-16T01:11:04.984Z,99.90
2019-04-16T01:13:37.897Z,99.90
2019-04-16T01:16:11.150Z,99.90
2019-04-16T01:18:44.108Z,99.90
2019-04-16T01:21:16.710Z,99.90
2019-04-16T01:23:49.653Z,99.90
2019-04-16T01:26:24.278Z,99.90
2019-04-16T01:29:05.286Z,99.90
2019-04-16T01:35:20.948Z,99.90
2019-04-16T01:38:27.637Z,99.90
2019-04-16T01:41:06.036Z,99.90
2019-04-16T01:43:42.671Z,99.90
2019-04-16T01:46:23.646Z,99.90
2019-04-16T01:49:04.486Z,99.90
2019-04-16T01:51:44.621Z,99.90
2019-04-16T01:54:23.660Z,99.90
2019-04-16T01:57:00.509Z,99.90
2019-04-16T01:59:48.868Z,99.90
2019-04-16T02:02:29.527Z,99.90
2019-04-16T02:05:07.377Z,99.90
2019-04-16T02:07:46.494Z,99.90
2019-04-16T02:10:25.788Z,99.90
2019-04-16T02:13:05.702Z,99.90
2019-04-16T02:15:43.177Z,99.90
2019-04-16T02:18:20.532Z,99.90
2019-04-16T02:20:57.842Z,99.90
2019-04-16T02:23:38.189Z,99.90
2019-04-16T02:26:17.169Z,99.90
2019-04-16T02:28:56.539Z,99.90
2019-04-16T02:31:37.687Z,99.90
2019-04-16T02:34:17.274Z,99.90
2019-04-16T02:36:52.046Z,99.90
2019-04-16T02:39:46.981Z,99.90
2019-04-16T02:42:13.837Z,99.90
2019-04-16T02:44:51.069Z,99.90
2019-04-16T02:47:42.390Z,99.90
2019-04-16T02:50:31.937Z,99.90
2019-04-16T02:53:38.346Z,99.90
2019-04-16T02:56:33.469Z,99.90
2019-04-16T02:59:16.891Z,99.90
2019-04-16T03:02:15.850Z,99.90
2019-04-16T03:05:29.074Z,99.90
2019-04-16T03:08:05.012Z,99.90
2019-04-16T03:10:38.383Z,99.90
2019-04-16T03:13:11.464Z,99.90
2019-04-16T03:16:05.889Z,99.90
2019-04-16T03:18:47.363Z,99.90
2019-04-16T03:21:19.674Z,99.90
2019-04-16T03:23:52.625Z,99.90
2019-04-16T03:26:25.578Z,99.90
2019-04-16T03:28:59.444Z,99.90
2019-04-16T03:31:32.423Z,99.90
2019-04-16T03:34:05.446Z,99.90
2019-04-16T03:36:38.797Z,99.90
2019-04-16T03:39:13.676Z,99.90
2019-04-16T03:41:46.263Z,99.90
2019-04-16T03:44:20.158Z,99.90
2019-04-16T03:46:53.070Z,99.90
2019-04-16T03:49:27.831Z,99.90
2019-04-16T03:52:00.542Z,99.90
2019-04-16T03:54:35.377Z,99.90
2019-04-16T03:57:08.256Z,99.90
2019-04-16T03:59:41.642Z,99.90
2019-04-16T04:02:15.528Z,99.90
2019-04-16T04:04:49.628Z,99.90
2019-04-16T04:07:22.568Z,99.90
2019-04-16T04:09:58.657Z,99.90
2019-04-16T04:12:30.532Z,99.90
2019-04-16T04:15:03.525Z,99.90
2019-04-16T04:17:38.736Z,99.90
2019-04-16T04:20:14.859Z,99.90
2019-04-16T04:22:47.331Z,99.90
2019-04-16T04:25:20.602Z,99.90
2019-04-16T04:27:53.666Z,99.90
2019-04-16T04:30:28.715Z,99.90
2019-04-16T04:33:01.743Z,99.90
2019-04-16T04:35:36.417Z,99.90
2019-04-16T04:38:12.262Z,99.90
2019-04-16T04:40:50.282Z,99.90
2019-04-16T04:43:20.816Z,99.90
2019-04-16T04:45:54.372Z,99.90
2019-04-16T04:48:27.528Z,99.90
2019-04-16T04:51:03.776Z,99.90
2019-04-16T04:53:35.505Z,99.90
2019-04-16T04:56:08.886Z,99.90
2019-04-16T04:58:42.004Z,99.90
2019-04-16T05:01:15.296Z,99.90
2019-04-16T05:04:22.502Z,99.90
2019-04-16T05:06:59.151Z,99.90
2019-04-16T05:09:35.599Z,99.90
2019-04-16T05:12:08.340Z,99.90
2019-04-16T05:14:58.473Z,99.90
2019-04-16T05:17:30.659Z,99.90
2019-04-16T05:20:04.039Z,99.90
2019-04-16T05:22:38.381Z,99.90
2019-04-16T05:25:11.643Z,99.90
2019-04-16T05:27:44.463Z,99.90
2019-04-16T05:30:20.856Z,99.90
2019-04-16T05:32:52.419Z,99.90
2019-04-16T05:35:25.870Z,99.90
2019-04-16T05:37:59.135Z,99.90
2019-04-16T05:40:35.016Z,98.80
2019-04-16T05:43:06.879Z,98.80
2019-04-16T05:45:40.480Z,99.20
2019-04-16T05:48:13.689Z,99.40
2019-04-16T05:50:46.966Z,99.30
2019-04-16T05:53:20.155Z,98.60
2019-04-16T05:56:12.546Z,97.90
2019-04-16T05:58:45.647Z,98.10
2019-04-16T06:01:42.401Z,98.20
2019-04-16T06:04:15.743Z,98.10
2019-04-16T06:06:49.011Z,97.90
2019-04-16T06:09:21.979Z,97.80
2019-04-16T06:11:55.121Z,97.00
2019-04-16T06:14:34.429Z,96.80
2019-04-16T06:17:25.899Z,97.10
2019-04-16T06:20:24.057Z,96.60
2019-04-16T06:23:25.141Z,96.70
2019-04-16T06:26:06.255Z,96.20
2019-04-16T06:28:56.352Z,94.70
2019-04-16T06:31:44.643Z,93.70
2019-04-16T06:35:04.904Z,92.40
2019-04-16T06:38:08.840Z,92.80
2019-04-16T06:40:45.241Z,91.90
2019-04-16T06:43:27.394Z,92.60
2019-04-16T06:46:19.585Z,93.40
2019-04-16T06:49:14.303Z,93.70
2019-04-16T06:52:15.811Z,93.20
2019-04-16T06:54:56.729Z,93.40
2019-04-16T06:57:42.948Z,93.70
2019-04-16T07:00:35.279Z,93.30
2019-04-16T07:03:32.420Z,92.50
2019-04-16T07:06:22.379Z,92.30
2019-04-16T07:09:14.316Z,92.10
2019-04-16T07:11:54.504Z,90.90
2019-04-16T07:14:23.888Z,90.60
2019-04-16T07:16:59.740Z,90.00
2019-04-16T07:19:31.884Z,89.90
2019-04-16T07:22:05.155Z,90.10
2019-04-16T07:24:38.574Z,90.20
2019-04-16T07:27:12.132Z,90.00
2019-04-16T07:30:06.900Z,88.70
2019-04-16T07:32:56.078Z,87.10
2019-04-16T07:35:38.789Z,85.90
2019-04-16T07:38:46.145Z,85.90
2019-04-16T07:41:34.034Z,83.70
2019-04-16T07:44:12.302Z,84.20
2019-04-16T07:47:07.653Z,81.50
2019-04-16T16:01:05.987Z,81.20
2019-04-16T16:04:08.051Z,81.40
2019-04-16T16:06:52.169Z,82.20
2019-04-16T16:09:29.874Z,82.00
2019-04-16T16:12:11.467Z,82.20
2019-04-16T16:14:45.037Z,81.20
2019-04-16T16:17:19.489Z,80.70
2019-04-16T16:19:53.495Z,80.20
2019-04-16T16:22:27.227Z,78.60
2019-04-16T16:25:00.781Z,78.40
2019-04-16T16:27:34.459Z,77.60
2019-04-16T16:30:08.415Z,77.50
2019-04-16T16:32:42.093Z,76.50
2019-04-16T16:35:17.799Z,76.50
2019-04-16T16:37:51.489Z,76.60
2019-04-16T16:40:25.123Z,76.50
2019-04-16T16:42:58.604Z,76.90
2019-04-16T16:45:46.390Z,77.40
2019-04-16T16:48:21.914Z,77.80
2019-04-16T16:50:55.276Z,78.10
2019-04-16T16:53:44.895Z,79.00
2019-04-16T16:56:25.347Z,80.50
2019-04-16T16:59:16.893Z,83.20
2019-04-16T17:02:08.613Z,85.40
2019-04-16T17:04:43.837Z,85.20
2019-04-16T17:07:18.085Z,87.10
2019-04-16T17:09:51.260Z,89.70
2019-04-16T17:12:24.663Z,90.40
2019-04-16T17:14:57.695Z,91.10
2019-04-16T17:17:31.120Z,91.00
2019-04-16T17:20:06.239Z,91.70
2019-04-16T17:22:40.981Z,92.40
2019-04-16T17:25:14.544Z,92.60
2019-04-16T17:27:51.927Z,92.70
2019-04-16T17:30:24.803Z,92.90
2019-04-16T17:32:58.478Z,93.00
2019-04-16T17:35:35.942Z,93.20
2019-04-16T17:38:08.409Z,93.20
2019-04-16T17:41:01.874Z,93.50
2019-04-16T17:44:01.929Z,93.80
2019-04-16T17:46:56.913Z,94.30
2019-04-16T17:50:02.525Z,94.70
2019-04-16T17:52:45.504Z,94.30
2019-04-16T17:55:43.534Z,94.90
2019-04-16T17:58:24.209Z,94.80
2019-04-16T18:01:29.886Z,93.70
2019-04-16T18:04:30.747Z,93.50
2019-04-16T18:07:25.883Z,93.70
2019-04-16T18:10:11.375Z,93.20
2019-04-16T18:12:59.082Z,92.80
2019-04-16T18:15:50.937Z,91.80
2019-04-16T18:18:36.469Z,91.00
2019-04-16T18:21:35.175Z,90.30
2019-04-16T18:24:39.550Z,89.70
2019-04-16T18:27:32.934Z,88.20
2019-04-16T18:30:39.191Z,87.80
2019-04-16T18:33:45.322Z,86.60
2019-04-16T18:36:36.418Z,84.70
2019-04-16T18:39:37.099Z,83.80
2019-04-16T18:42:38.709Z,82.20
2019-04-16T18:45:36.963Z,82.70
2019-04-16T18:48:20.304Z,82.90
2019-04-16T18:50:59.962Z,81.60
2019-04-16T18:53:31.489Z,80.00
2019-04-16T18:56:04.581Z,80.40
2019-04-16T18:58:41.555Z,81.00
2019-04-16T19:01:17.448Z,79.70
2019-04-16T19:03:51.367Z,79.70
2019-04-16T19:06:24.860Z,79.60
2019-04-16T19:08:58.621Z,79.10
2019-04-16T19:11:34.820Z,78.70
2019-04-16T19:14:14.037Z,78.00
2019-04-16T19:16:47.454Z,77.50
2019-04-16T19:19:22.238Z,78.60
2019-04-16T19:21:56.248Z,77.00
2019-04-16T19:24:30.356Z,76.50
2019-04-16T19:27:04.320Z,76.30
2019-04-16T19:29:42.833Z,76.40
2019-04-16T19:32:15.822Z,76.20
2019-04-16T19:34:50.013Z,76.90
2019-04-16T19:37:23.591Z,76.40
2019-04-16T19:39:56.926Z,74.70
2019-04-16T19:42:33.222Z,75.60
2019-04-16T19:45:08.634Z,74.20
2019-04-16T19:47:42.325Z,75.30
2019-04-16T19:50:18.051Z,74.30
2019-04-16T19:52:53.073Z,74.50
2019-04-16T19:55:26.599Z,75.40
2019-04-16T19:58:00.331Z,75.40
2019-04-16T20:00:34.447Z,74.50
2019-04-16T20:03:08.304Z,74.90
2019-04-16T20:05:42.252Z,74.20
2019-04-16T20:08:16.210Z,73.60
2019-04-16T20:10:49.703Z,76.50
2019-04-16T20:13:28.991Z,73.50
2019-04-16T20:16:03.012Z,73.80
2019-04-16T20:18:50.289Z,74.50
2019-04-16T20:21:16.381Z,75.70
2019-04-16T20:23:50.094Z,75.30
2019-04-16T20:26:25.581Z,75.40
2019-04-16T20:28:59.332Z,73.90
2019-04-16T20:31:36.932Z,75.20
2019-04-16T20:34:12.419Z,74.10
2019-04-16T20:36:45.286Z,74.90
2019-04-16T20:39:18.720Z,75.30
2019-04-16T20:41:53.114Z,75.20
2019-04-16T20:44:27.690Z,75.00
2019-04-16T20:47:03.348Z,76.40
2019-04-16T20:49:35.492Z,75.80
2019-04-16T20:52:08.757Z,76.90
2019-04-16T20:54:45.603Z,77.30
2019-04-16T20:57:18.747Z,78.00
2019-04-16T20:59:53.771Z,78.10
2019-04-16T21:02:29.451Z,79.30
2019-04-16T21:05:04.500Z,79.20
2019-04-16T21:07:37.835Z,79.00
2019-04-16T21:10:11.211Z,79.90
2019-04-16T21:12:45.379Z,78.50
2019-04-16T21:15:19.111Z,78.50
2019-04-16T21:17:52.253Z,79.20
2019-04-16T21:20:25.103Z,78.30
2019-04-16T21:23:01.567Z,77.50
2019-04-16T21:25:33.500Z,77.00
2019-04-16T21:28:23.884Z,76.50
2019-04-16T21:31:01.092Z,76.80
2019-04-16T21:33:40.023Z,75.70
2019-04-16T21:36:19.159Z,75.90
2019-04-16T21:39:09.672Z,76.40
2019-04-16T21:41:42.571Z,76.40
2019-04-16T21:44:15.683Z,77.00
2019-04-16T21:46:52.017Z,76.00
2019-04-16T21:49:37.857Z,75.80
2019-04-16T21:52:08.009Z,75.90
2019-04-16T21:54:41.429Z,75.20
2019-04-16T21:57:14.936Z,76.00
2019-04-16T21:59:50.270Z,75.50
2019-04-16T22:02:30.149Z,76.20
2019-04-16T22:05:02.981Z,75.10
2019-04-16T22:07:36.057Z,75.30
2019-04-16T22:10:09.436Z,75.70
2019-04-16T22:12:44.805Z,76.30
2019-04-16T22:15:17.255Z,76.50
2019-04-16T22:17:50.015Z,76.60
2019-04-16T22:20:22.927Z,77.70
2019-04-16T22:22:55.806Z,78.80
2019-04-16T22:25:28.773Z,79.50
2019-04-16T22:28:01.680Z,80.80
2019-04-16T22:30:34.941Z,80.80
2019-04-16T22:33:07.715Z,82.50
2019-04-16T22:35:40.785Z,83.70
2019-04-16T22:38:14.472Z,81.30
2019-04-16T22:41:04.731Z,83.10
2019-04-16T22:44:06.286Z,78.70
2019-04-16T22:46:51.146Z,79.20
2019-04-16T22:49:24.157Z,81.00
2019-04-16T22:51:57.071Z,81.40
2019-04-16T22:54:29.873Z,81.30
2019-04-16T22:57:11.112Z,81.90
2019-04-16T22:59:44.281Z,82.20
2019-04-16T23:02:28.987Z,81.70
2019-04-16T23:05:01.724Z,82.00
2019-04-16T23:07:36.583Z,82.90
2019-04-16T23:10:09.963Z,82.30
2019-04-16T23:12:42.933Z,82.30
2019-04-16T23:15:16.015Z,83.50
2019-04-16T23:17:48.868Z,82.50
2019-04-16T23:20:29.687Z,83.20
2019-04-16T23:22:58.245Z,84.10
2019-04-16T23:25:31.347Z,84.20
2019-04-16T23:28:09.451Z,85.70
2019-04-16T23:30:40.179Z,84.70
2019-04-16T23:33:13.087Z,83.90
2019-04-16T23:35:46.215Z,84.20
2019-04-16T23:38:19.287Z,83.30
2019-04-16T23:40:52.483Z,83.20
2019-04-16T23:43:53.520Z,83.40
2019-04-16T23:46:53.309Z,83.10
2019-04-16T23:49:52.504Z,83.80
2019-04-16T23:52:50.683Z,84.00
2019-04-16T23:55:48.986Z,84.40
2019-04-16T23:58:34.389Z,85.60
